CheckWX is a tool to help pilots better visualize weather data.  It is not intended as a substitute for an official pre-flight weather briefing.

15:04:19 UTC

KEAN METAR
Phifer Airfield Airport
Wheatland, Wyoming, USA
Current

29 mins ago

KEAN 231435Z AUTO 35003KT 10SM OVC050 05/02 A3012 RMK AO2 T00460019
Observed
May-23 @ 14:35 UTC
Wind
  • 350° at 3 KTS
Visibility
10 SM
Flight Rules
VFR
Cloud Levels
  • Overcast at 5,000' AGL
Temperature
C / 41°F
Dewpoint
C / 36°F
Humidity
81%
Altimeter
30.12" Hg
Pressure
1020.02 hPa
Previous

49 mins ago

KEAN 231415Z AUTO 00000KT 10SM OVC060 04/02 A3013 RMK AO2 T00410016
Observed
May-23 @ 14:15 UTC
Visibility
10 SM
Flight Rules
VFR
Cloud Levels
  • Overcast at 6,000' AGL
Temperature
C / 39°F
Dewpoint
C / 36°F
Humidity
87%
Altimeter
30.13" Hg
Pressure
1020.32 hPa
Previous

1 hour ago

KEAN 231355Z AUTO 10003KT 10SM SCT027 OVC060 04/02 A3013 RMK AO2 T00350015
Observed
May-23 @ 13:55 UTC
Wind
  • 100° at 3 KTS
Visibility
10 SM
Flight Rules
VFR
Cloud Levels
  • Scattered at 2,700' AGL
  • Overcast at 6,000' AGL
Temperature
C / 39°F
Dewpoint
C / 36°F
Humidity
87%
Altimeter
30.13" Hg
Pressure
1020.32 hPa